Time;durP1;ratioP1;P1;durP2;ratioP2;P2;SDS_P1;SDS_P2;PMS_P1;PMS_P2;Temp;Humidity;BMP_temperature;BMP_pressure;BME280_temperature;BME280_humidity;BME280_pressure;Samples;Min_cycle;Max_cycle;Signal;HPM_P1;HPM_P2
2022/06/20 00:00:27;;;;;;;;;;;20.90;92.80;;;;;;5054928;28;20268;-51
2022/06/20 00:03:20;;;;;;;;;;;20.40;93.70;;;;;;5054510;28;19924;-49
2022/06/20 00:06:04;;;;;;;;;;;20.00;94.80;;;;;;5053976;28;20578;-52
2022/06/20 00:08:50;;;;;;;;;;;19.40;96.20;;;;;;5054702;28;19924;-53
2022/06/20 00:11:38;;;;;;;;;;;19.20;97.10;;;;;;5054129;28;19911;-50
2022/06/20 00:14:22;;;;;;;;;;;19.10;97.80;;;;;;5054443;28;20434;-54
2022/06/20 00:17:12;;;;;;;;;;;19.30;97.80;;;;;;5054177;28;19970;-53
2022/06/20 00:19:56;;;;;;;;;;;19.60;97.90;;;;;;5053663;28;19919;-48
2022/06/20 00:22:40;;;;;;;;;;;19.60;97.10;;;;;;5053940;28;20050;-49
2022/06/20 00:25:24;;;;;;;;;;;19.40;97.50;;;;;;5041873;28;19916;-47
2022/06/20 00:28:10;;;;;;;;;;;19.20;98.30;;;;;;5039311;28;19975;-52
2022/06/20 00:30:55;;;;;;;;;;;18.90;98.80;;;;;;5045689;28;19911;-51
2022/06/20 00:33:39;;;;;;;;;;;18.70;99.30;;;;;;5053994;28;19982;-50
2022/06/20 00:36:24;;;;;;;;;;;18.70;99.50;;;;;;5053421;28;20454;-50
2022/06/20 00:39:09;;;;;;;;;;;18.70;99.90;;;;;;5053746;28;19935;-46
2022/06/20 00:41:54;;;;;;;;;;;18.30;99.90;;;;;;5046271;28;20490;-48
2022/06/20 00:44:40;;;;;;;;;;;18.10;99.90;;;;;;5052877;28;19915;-52
2022/06/20 00:47:27;;;;;;;;;;;18.40;99.90;;;;;;5052588;28;19916;-56
2022/06/20 00:50:14;;;;;;;;;;;18.50;99.90;;;;;;5052896;28;19951;-58
2022/06/20 00:52:58;;;;;;;;;;;18.40;99.90;;;;;;5052833;28;19963;-56
2022/06/20 00:55:46;;;;;;;;;;;18.50;99.90;;;;;;5051960;28;20018;-58
2022/06/20 00:58:48;;;;;;;;;;;18.40;99.90;;;;;;5034767;28;20280;-61
2022/06/20 01:01:34;;;;;;;;;;;18.40;99.90;;;;;;5047517;28;20031;-59
2022/06/20 01:04:26;;;;;;;;;;;18.30;99.90;;;;;;5054433;28;19927;-53
2022/06/20 01:07:24;;;;;;;;;;;18.00;99.90;;;;;;5053424;28;19950;-53
2022/06/20 01:10:09;;;;;;;;;;;17.80;99.90;;;;;;5052333;28;19912;-50
2022/06/20 01:13:00;;;;;;;;;;;17.80;99.90;;;;;;5053020;28;19915;-51
2022/06/20 01:15:45;;;;;;;;;;;17.90;99.90;;;;;;5050914;28;20473;-55
2022/06/20 01:18:31;;;;;;;;;;;17.70;99.90;;;;;;5052571;28;19950;-54
2022/06/20 01:21:17;;;;;;;;;;;17.60;99.90;;;;;;5052534;28;19919;-51
2022/06/20 01:24:01;;;;;;;;;;;17.60;99.90;;;;;;5052903;28;20291;-52
2022/06/20 01:26:51;;;;;;;;;;;17.60;99.90;;;;;;5051684;28;19916;-49
2022/06/20 01:29:35;;;;;;;;;;;17.60;99.90;;;;;;5052314;28;19920;-53
2022/06/20 01:32:19;;;;;;;;;;;17.60;99.90;;;;;;5054757;28;19924;-52
2022/06/20 01:35:05;;;;;;;;;;;17.60;99.90;;;;;;5054751;28;19931;-53
2022/06/20 01:37:49;;;;;;;;;;;17.70;99.90;;;;;;5033324;28;19951;-49
2022/06/20 01:40:34;;;;;;;;;;;17.60;99.90;;;;;;5034227;28;20395;-48
2022/06/20 01:43:19;;;;;;;;;;;17.50;99.90;;;;;;5051374;28;20055;-53
2022/06/20 01:46:09;;;;;;;;;;;17.50;99.90;;;;;;5051104;28;20333;-52
2022/06/20 01:48:55;;;;;;;;;;;17.60;99.90;;;;;;5052623;28;19927;-50
2022/06/20 01:51:50;;;;;;;;;;;17.70;99.90;;;;;;5052439;28;19970;-47
2022/06/20 01:54:39;;;;;;;;;;;17.70;99.90;;;;;;5054831;28;20319;-48
2022/06/20 01:57:26;;;;;;;;;;;17.60;99.90;;;;;;5035978;28;19916;-48
2022/06/20 02:00:13;;;;;;;;;;;17.20;99.90;;;;;;5039904;28;19928;-50
2022/06/20 02:03:03;;;;;;;;;;;17.20;99.90;;;;;;5056344;28;19916;-53
2022/06/20 02:05:49;;;;;;;;;;;17.20;99.90;;;;;;5055373;28;19970;-55
2022/06/20 02:08:34;;;;;;;;;;;17.30;99.90;;;;;;5056910;28;19991;-54
2022/06/20 02:11:25;;;;;;;;;;;17.20;99.90;;;;;;5056251;28;20599;-48
2022/06/20 02:14:15;;;;;;;;;;;17.20;99.90;;;;;;5056287;28;19931;-48
2022/06/20 02:17:03;;;;;;;;;;;17.10;99.90;;;;;;5055356;28;19959;-48
2022/06/20 02:19:49;;;;;;;;;;;16.90;99.90;;;;;;5056102;28;19979;-51
2022/06/20 02:22:34;;;;;;;;;;;17.00;99.90;;;;;;5036077;28;19919;-52
2022/06/20 02:25:22;;;;;;;;;;;16.90;99.90;;;;;;5047645;28;19917;-53
2022/06/20 02:28:08;;;;;;;;;;;16.90;99.90;;;;;;5055832;28;19911;-50
2022/06/20 02:30:52;;;;;;;;;;;16.70;99.90;;;;;;5054775;28;19947;-48
2022/06/20 02:33:37;;;;;;;;;;;16.90;99.90;;;;;;5055909;28;19931;-49
2022/06/20 02:36:21;;;;;;;;;;;16.90;99.90;;;;;;5055399;28;19967;-49
2022/06/20 02:39:05;;;;;;;;;;;16.80;99.90;;;;;;5055960;28;19985;-50
2022/06/20 02:41:57;;;;;;;;;;;16.80;99.90;;;;;;5042570;28;19926;-52
2022/06/20 02:44:43;;;;;;;;;;;16.80;99.90;;;;;;5055448;28;19924;-49
2022/06/20 02:47:27;;;;;;;;;;;17.00;99.90;;;;;;5055605;28;20018;-49
2022/06/20 02:50:12;;;;;;;;;;;17.20;99.90;;;;;;5055993;28;20387;-47
2022/06/20 02:53:00;;;;;;;;;;;17.40;99.90;;;;;;5055774;28;19962;-53
2022/06/20 02:55:45;;;;;;;;;;;17.40;99.90;;;;;;5034461;28;20304;-49
2022/06/20 02:58:30;;;;;;;;;;;17.30;99.90;;;;;;5039024;28;19966;-48
2022/06/20 03:01:18;;;;;;;;;;;17.20;99.90;;;;;;5055938;28;19954;-55
2022/06/20 03:04:03;;;;;;;;;;;17.10;99.90;;;;;;5054954;28;19915;-50
2022/06/20 03:07:00;;;;;;;;;;;17.20;99.90;;;;;;5054505;28;19915;-49
2022/06/20 03:09:45;;;;;;;;;;;17.40;99.90;;;;;;5054710;28;19931;-47
2022/06/20 03:12:31;;;;;;;;;;;17.50;99.90;;;;;;5054036;28;19962;-50
2022/06/20 03:15:15;;;;;;;;;;;17.60;99.90;;;;;;5054210;28;20591;-49
2022/06/20 03:18:00;;;;;;;;;;;17.60;99.90;;;;;;5055302;28;19927;-51
2022/06/20 03:20:44;;;;;;;;;;;17.60;99.90;;;;;;5055940;28;19936;-50
2022/06/20 03:23:31;;;;;;;;;;;17.80;99.90;;;;;;5055360;28;19919;-48
2022/06/20 03:26:17;;;;;;;;;;;18.20;99.90;;;;;;5054515;28;19916;-48
2022/06/20 03:29:01;;;;;;;;;;;18.30;99.90;;;;;;5056248;28;20098;-47
2022/06/20 03:31:45;;;;;;;;;;;18.40;99.90;;;;;;5055591;28;20307;-53
2022/06/20 03:34:29;;;;;;;;;;;18.20;99.90;;;;;;5055081;28;20407;-52
2022/06/20 03:37:14;;;;;;;;;;;18.20;99.90;;;;;;5054612;28;19923;-50
2022/06/20 03:39:58;;;;;;;;;;;18.20;99.90;;;;;;5055505;28;20387;-50
2022/06/20 03:42:43;;;;;;;;;;;18.30;99.90;;;;;;5049012;28;20276;-50
2022/06/20 03:45:31;;;;;;;;;;;18.10;99.90;;;;;;5054428;28;19915;-50
2022/06/20 03:48:28;;;;;;;;;;;17.80;99.90;;;;;;5053894;28;19932;-46
2022/06/20 03:51:24;;;;;;;;;;;17.60;99.90;;;;;;5054799;28;19916;-53
2022/06/20 03:54:20;;;;;;;;;;;17.50;99.90;;;;;;5054446;28;20030;-54
2022/06/20 03:57:10;;;;;;;;;;;17.50;99.90;;;;;;5053912;28;19951;-49
2022/06/20 04:00:15;;;;;;;;;;;17.80;99.90;;;;;;5054893;28;19974;-50
2022/06/20 04:03:02;;;;;;;;;;;18.00;99.90;;;;;;5053849;28;20009;-49
2022/06/20 04:05:59;;;;;;;;;;;18.10;99.90;;;;;;5033691;28;19959;-49
2022/06/20 04:11:49;;;;;;;;;;;18.50;99.90;;;;;;5038464;28;20042;-50
2022/06/20 04:14:57;;;;;;;;;;;18.60;99.90;;;;;;5054409;28;19999;-50
2022/06/20 04:20:55;;;;;;;;;;;18.20;99.90;;;;;;5053265;28;20471;-49
2022/06/20 04:23:39;;;;;;;;;;;18.20;99.90;;;;;;5053558;28;19990;-51
2022/06/20 04:26:26;;;;;;;;;;;18.30;99.90;;;;;;5052472;28;19912;-50
2022/06/20 04:29:15;;;;;;;;;;;18.40;99.90;;;;;;5052582;28;19920;-54
2022/06/20 04:32:22;;;;;;;;;;;18.60;99.90;;;;;;5052834;28;19911;-51
2022/06/20 04:35:12;;;;;;;;;;;18.40;99.90;;;;;;5053491;28;19971;-57
2022/06/20 04:37:59;;;;;;;;;;;18.20;99.90;;;;;;5053141;28;19980;-47
2022/06/20 04:40:50;;;;;;;;;;;17.40;99.90;;;;;;5053803;28;20375;-53
2022/06/20 04:43:37;;;;;;;;;;;16.70;99.90;;;;;;5048523;28;19915;-47
2022/06/20 04:46:25;;;;;;;;;;;16.50;99.90;;;;;;5052649;28;20322;-47
2022/06/20 04:49:12;;;;;;;;;;;16.20;99.90;;;;;;5052883;28;20406;-48
2022/06/20 04:51:56;;;;;;;;;;;16.30;99.90;;;;;;5052944;28;19935;-57
2022/06/20 04:54:40;;;;;;;;;;;16.30;99.90;;;;;;5053153;28;19916;-57
2022/06/20 04:57:26;;;;;;;;;;;16.40;99.90;;;;;;5051932;28;20303;-57
2022/06/20 05:00:17;;;;;;;;;;;16.30;99.90;;;;;;5056658;28;19947;-59
2022/06/20 05:03:01;;;;;;;;;;;16.30;99.90;;;;;;5056366;28;19916;-58
2022/06/20 05:05:47;;;;;;;;;;;16.40;99.90;;;;;;5055657;28;19993;-59
2022/06/20 05:08:36;;;;;;;;;;;16.50;99.90;;;;;;5052038;28;19958;-59
2022/06/20 05:11:24;;;;;;;;;;;16.70;99.90;;;;;;5053583;28;19916;-57
2022/06/20 05:14:11;;;;;;;;;;;17.00;99.90;;;;;;5053114;28;19915;-56
2022/06/20 05:16:56;;;;;;;;;;;17.20;99.90;;;;;;5052432;28;19996;-56
2022/06/20 05:19:45;;;;;;;;;;;17.20;99.90;;;;;;5053084;28;20070;-55
2022/06/20 05:22:31;;;;;;;;;;;17.20;99.90;;;;;;5052634;28;20330;-55
2022/06/20 05:25:18;;;;;;;;;;;17.40;99.90;;;;;;5052101;28;20371;-53
2022/06/20 05:28:04;;;;;;;;;;;17.40;99.90;;;;;;5052678;28;20390;-55
2022/06/20 05:30:48;;;;;;;;;;;17.40;99.90;;;;;;5033357;28;19916;-54
2022/06/20 05:33:51;;;;;;;;;;;17.40;99.90;;;;;;5037949;28;19920;-53
2022/06/20 05:36:46;;;;;;;;;;;17.20;99.90;;;;;;5052407;28;19959;-51
2022/06/20 05:39:51;;;;;;;;;;;17.20;99.90;;;;;;5052121;28;19920;-50
2022/06/20 05:42:36;;;;;;;;;;;17.20;99.90;;;;;;5045934;28;19982;-52
2022/06/20 05:45:22;;;;;;;;;;;17.10;99.90;;;;;;5052310;28;20002;-54
2022/06/20 05:48:10;;;;;;;;;;;17.00;99.90;;;;;;5052636;28;19920;-50
2022/06/20 05:50:58;;;;;;;;;;;16.90;99.90;;;;;;5052541;28;19957;-50
2022/06/20 05:53:52;;;;;;;;;;;17.00;99.90;;;;;;5052754;28;19915;-49
2022/06/20 05:56:55;;;;;;;;;;;17.10;99.90;;;;;;5050766;28;19955;-52
2022/06/20 05:59:41;;;;;;;;;;;17.00;99.90;;;;;;5052701;28;19972;-50
2022/06/20 06:02:28;;;;;;;;;;;16.90;99.90;;;;;;5052780;28;19954;-53
2022/06/20 06:05:15;;;;;;;;;;;16.70;99.90;;;;;;5032457;28;19967;-49
2022/06/20 06:08:03;;;;;;;;;;;16.60;99.90;;;;;;5044026;28;19923;-51
2022/06/20 06:11:06;;;;;;;;;;;16.60;99.90;;;;;;5052358;28;20023;-48
2022/06/20 06:14:04;;;;;;;;;;;16.60;99.90;;;;;;5052267;28;20425;-52
2022/06/20 06:16:51;;;;;;;;;;;16.70;99.90;;;;;;5051607;28;19931;-50
2022/06/20 06:19:35;;;;;;;;;;;16.80;99.90;;;;;;5052895;28;20371;-51
2022/06/20 06:22:21;;;;;;;;;;;16.90;99.90;;;;;;5052516;28;19996;-49
2022/06/20 06:25:23;;;;;;;;;;;17.00;99.90;;;;;;5052829;28;19912;-54
2022/06/20 06:28:12;;;;;;;;;;;17.00;99.90;;;;;;5052528;28;19974;-51
2022/06/20 06:31:17;;;;;;;;;;;17.00;99.90;;;;;;5051556;28;20425;-50
2022/06/20 06:34:05;;;;;;;;;;;17.00;99.90;;;;;;5052246;28;19912;-50
2022/06/20 06:36:58;;;;;;;;;;;17.10;99.90;;;;;;5051007;28;19915;-50
2022/06/20 06:39:48;;;;;;;;;;;17.30;99.90;;;;;;5052663;28;19998;-54
2022/06/20 06:42:33;;;;;;;;;;;17.40;99.90;;;;;;5048530;28;19919;-53
2022/06/20 06:45:21;;;;;;;;;;;17.40;99.90;;;;;;5055622;28;20012;-51
2022/06/20 06:48:09;;;;;;;;;;;17.40;99.90;;;;;;5056072;28;19912;-49
2022/06/20 06:50:55;;;;;;;;;;;17.40;99.90;;;;;;5055929;28;19916;-51
2022/06/20 06:53:45;;;;;;;;;;;17.30;99.90;;;;;;5055990;28;19912;-54
2022/06/20 06:56:35;;;;;;;;;;;17.30;99.90;;;;;;5055072;28;20309;-54
2022/06/20 06:59:25;;;;;;;;;;;17.20;99.90;;;;;;5056787;28;20013;-50
2022/06/20 07:02:16;;;;;;;;;;;17.10;99.90;;;;;;5055315;28;19932;-53
2022/06/20 07:05:06;;;;;;;;;;;17.20;99.90;;;;;;5056101;28;19916;-48
2022/06/20 07:07:53;;;;;;;;;;;17.20;99.90;;;;;;5036685;28;19920;-47
2022/06/20 07:10:40;;;;;;;;;;;17.30;99.90;;;;;;5055403;28;19931;-54
2022/06/20 07:13:34;;;;;;;;;;;17.30;99.90;;;;;;5054914;28;19983;-54
2022/06/20 07:16:37;;;;;;;;;;;17.30;99.90;;;;;;5053649;28;20011;-52
2022/06/20 07:19:24;;;;;;;;;;;17.20;99.90;;;;;;5054659;28;19958;-54
2022/06/20 07:22:09;;;;;;;;;;;17.20;99.90;;;;;;5054665;28;19923;-56
2022/06/20 07:24:54;;;;;;;;;;;17.10;99.90;;;;;;5054779;28;19931;-54
2022/06/20 07:27:46;;;;;;;;;;;17.10;99.90;;;;;;5034564;28;19915;-54
2022/06/20 07:30:37;;;;;;;;;;;17.40;99.90;;;;;;5037027;28;19963;-54
2022/06/20 07:33:24;;;;;;;;;;;17.50;99.90;;;;;;5055132;28;20386;-52
2022/06/20 07:36:09;;;;;;;;;;;17.70;99.90;;;;;;5053856;28;19980;-51
2022/06/20 07:39:01;;;;;;;;;;;17.80;99.90;;;;;;5054743;28;19916;-51
2022/06/20 07:41:51;;;;;;;;;;;17.90;99.90;;;;;;5040793;28;20429;-49
2022/06/20 07:44:40;;;;;;;;;;;17.90;99.90;;;;;;5054403;28;19955;-50
2022/06/20 07:47:30;;;;;;;;;;;17.70;99.90;;;;;;5052920;28;20336;-53
2022/06/20 07:50:17;;;;;;;;;;;17.50;99.90;;;;;;5054447;28;20499;-50
2022/06/20 07:53:11;;;;;;;;;;;17.30;99.90;;;;;;5054377;28;19911;-53
2022/06/20 07:55:59;;;;;;;;;;;17.20;99.90;;;;;;5053324;28;19915;-54
2022/06/20 07:58:54;;;;;;;;;;;17.20;99.90;;;;;;5054681;28;20382;-54
2022/06/20 08:01:58;;;;;;;;;;;17.20;99.90;;;;;;5053177;28;19924;-53
2022/06/20 08:04:44;;;;;;;;;;;17.20;99.90;;;;;;5053363;28;19966;-52
2022/06/20 08:07:39;;;;;;;;;;;17.20;99.90;;;;;;5054069;28;20007;-56
2022/06/20 08:10:27;;;;;;;;;;;17.20;99.90;;;;;;5053448;28;19915;-53
2022/06/20 08:13:28;;;;;;;;;;;17.10;99.90;;;;;;5049616;28;19915;-53
2022/06/20 08:16:32;;;;;;;;;;;17.10;99.90;;;;;;5034012;28;19998;-53
2022/06/20 08:19:17;;;;;;;;;;;17.10;99.90;;;;;;5048725;28;20276;-53
2022/06/20 08:22:08;;;;;;;;;;;17.30;99.90;;;;;;5052265;28;19931;-50
2022/06/20 08:24:56;;;;;;;;;;;17.40;99.90;;;;;;5054137;28;19950;-51
2022/06/20 08:27:40;;;;;;;;;;;17.50;99.90;;;;;;5053529;28;19962;-51
2022/06/20 08:30:33;;;;;;;;;;;17.50;99.90;;;;;;5053581;28;20442;-51
2022/06/20 08:33:24;;;;;;;;;;;17.60;99.90;;;;;;5053097;28;19954;-50
2022/06/20 08:36:14;;;;;;;;;;;17.70;99.90;;;;;;5052418;28;19997;-54
2022/06/20 08:39:01;;;;;;;;;;;17.60;99.90;;;;;;5052746;28;19989;-55
2022/06/20 08:41:54;;;;;;;;;;;17.50;99.90;;;;;;5052565;28;19924;-51
2022/06/20 08:44:57;;;;;;;;;;;17.40;99.90;;;;;;5052122;28;19912;-56
2022/06/20 08:48:00;;;;;;;;;;;17.20;99.90;;;;;;5052135;28;19931;-54
2022/06/20 08:50:44;;;;;;;;;;;17.10;99.90;;;;;;5052461;28;20413;-53
2022/06/20 08:53:44;;;;;;;;;;;16.70;99.90;;;;;;5051661;28;20280;-55
2022/06/20 08:56:28;;;;;;;;;;;16.80;99.90;;;;;;5052194;28;20008;-55
2022/06/20 08:59:12;;;;;;;;;;;16.80;99.90;;;;;;5047588;28;19915;-53
2022/06/20 09:01:56;;;;;;;;;;;16.70;99.90;;;;;;5051662;28;19920;-49
2022/06/20 09:04:59;;;;;;;;;;;16.80;99.90;;;;;;5051165;28;20272;-57
2022/06/20 09:07:55;;;;;;;;;;;16.90;99.90;;;;;;5051650;28;19916;-55
2022/06/20 09:10:48;;;;;;;;;;;16.90;99.90;;;;;;5052866;28;19966;-51
2022/06/20 09:13:51;;;;;;;;;;;16.80;99.90;;;;;;5051091;28;19915;-54
2022/06/20 09:16:35;;;;;;;;;;;16.80;99.90;;;;;;5051169;28;19915;-53
2022/06/20 09:19:28;;;;;;;;;;;16.80;99.90;;;;;;5051432;28;20394;-55
2022/06/20 09:22:16;;;;;;;;;;;16.60;99.90;;;;;;5052766;28;19979;-54
2022/06/20 09:25:10;;;;;;;;;;;16.60;99.90;;;;;;5052319;28;19974;-50
2022/06/20 09:27:54;;;;;;;;;;;16.70;99.90;;;;;;5052272;28;20284;-57
2022/06/20 09:30:58;;;;;;;;;;;16.70;99.90;;;;;;5051891;28;19916;-56
2022/06/20 09:34:02;;;;;;;;;;;16.90;99.90;;;;;;5050846;28;20295;-56
2022/06/20 09:36:57;;;;;;;;;;;16.90;99.90;;;;;;5051032;28;19912;-58
2022/06/20 09:39:59;;;;;;;;;;;16.90;99.90;;;;;;5051068;28;19916;-58
2022/06/20 09:42:53;;;;;;;;;;;16.80;99.90;;;;;;5049928;28;19985;-55
2022/06/20 09:45:52;;;;;;;;;;;16.70;99.90;;;;;;5051380;28;20295;-58
2022/06/20 09:48:55;;;;;;;;;;;16.70;99.90;;;;;;5050311;28;20291;-58
2022/06/20 09:51:47;;;;;;;;;;;16.60;99.90;;;;;;5049325;28;19970;-64
2022/06/20 09:54:40;;;;;;;;;;;16.70;99.90;;;;;;5048808;28;19916;-58
2022/06/20 09:57:39;;;;;;;;;;;16.60;99.90;;;;;;5050302;28;19912;-59
2022/06/20 10:00:28;;;;;;;;;;;16.30;99.90;;;;;;5048229;28;19916;-52
2022/06/20 10:03:20;;;;;;;;;;;16.20;99.90;;;;;;5052016;28;20315;-56
2022/06/20 10:06:20;;;;;;;;;;;16.00;99.90;;;;;;5047185;28;19924;-53
2022/06/20 10:09:11;;;;;;;;;;;15.90;99.90;;;;;;5050699;28;19924;-55
2022/06/20 10:12:13;;;;;;;;;;;15.60;99.90;;;;;;5051399;28;19926;-53
2022/06/20 10:15:03;;;;;;;;;;;15.40;99.90;;;;;;5053233;28;19931;-51
2022/06/20 10:17:57;;;;;;;;;;;15.20;99.90;;;;;;5052413;28;19958;-56
2022/06/20 10:20:47;;;;;;;;;;;15.10;99.90;;;;;;5052610;28;20035;-53
2022/06/20 10:23:31;;;;;;;;;;;15.10;99.90;;;;;;5053164;28;19920;-53
2022/06/20 10:26:25;;;;;;;;;;;15.20;99.90;;;;;;5049126;28;19916;-56
2022/06/20 10:29:28;;;;;;;;;;;15.00;99.90;;;;;;5052987;28;19966;-53
2022/06/20 10:32:20;;;;;;;;;;;15.00;99.90;;;;;;5052610;28;20454;-50
2022/06/20 10:35:13;;;;;;;;;;;14.90;99.90;;;;;;5054966;28;19915;-55
2022/06/20 10:38:11;;;;;;;;;;;14.90;99.90;;;;;;5051746;28;19955;-55
2022/06/20 10:41:07;;;;;;;;;;;14.80;99.90;;;;;;5052004;28;19916;-52
2022/06/20 10:44:02;;;;;;;;;;;14.70;99.90;;;;;;5048362;28;19995;-52
2022/06/20 10:47:05;;;;;;;;;;;14.70;99.90;;;;;;5051223;28;19916;-53
2022/06/20 10:49:55;;;;;;;;;;;14.70;99.90;;;;;;5051763;28;20364;-53
2022/06/20 10:52:52;;;;;;;;;;;14.70;99.90;;;;;;5053567;28;20404;-57
2022/06/20 10:55:42;;;;;;;;;;;14.70;99.90;;;;;;5051883;28;19915;-58
2022/06/20 10:58:47;;;;;;;;;;;14.80;99.90;;;;;;5054088;28;19916;-55
2022/06/20 11:01:34;;;;;;;;;;;14.80;99.90;;;;;;5071428;28;20019;-55
2022/06/20 11:04:38;;;;;;;;;;;14.70;99.90;;;;;;5054704;28;19912;-55
2022/06/20 11:07:31;;;;;;;;;;;14.80;99.90;;;;;;5032757;28;19916;-55
2022/06/20 11:10:31;;;;;;;;;;;14.80;99.90;;;;;;5048815;28;20307;-56
2022/06/20 11:13:28;;;;;;;;;;;14.70;99.90;;;;;;5054738;28;20003;-55
2022/06/20 11:16:27;;;;;;;;;;;14.60;99.90;;;;;;5048928;28;19915;-57
2022/06/20 11:19:12;;;;;;;;;;;14.70;99.90;;;;;;5052293;28;19915;-56
2022/06/20 11:21:59;;;;;;;;;;;14.60;99.90;;;;;;5052589;28;20027;-57
2022/06/20 11:25:02;;;;;;;;;;;14.30;99.90;;;;;;5046134;28;19947;-59
2022/06/20 11:28:06;;;;;;;;;;;14.50;99.90;;;;;;5035862;28;19912;-58
2022/06/20 11:31:06;;;;;;;;;;;14.30;99.90;;;;;;5055122;28;19915;-57
2022/06/20 11:34:09;;;;;;;;;;;14.30;99.90;;;;;;5052364;28;19920;-60
2022/06/20 11:37:15;;;;;;;;;;;14.40;99.90;;;;;;5052064;28;20355;-56
2022/06/20 11:40:13;;;;;;;;;;;14.30;99.90;;;;;;5051063;28;19955;-56
2022/06/20 11:43:08;;;;;;;;;;;14.40;99.90;;;;;;5049904;28;19924;-54
2022/06/20 11:46:12;;;;;;;;;;;14.40;99.90;;;;;;5046093;28;19924;-59
2022/06/20 11:48:59;;;;;;;;;;;14.30;99.90;;;;;;5044567;28;19962;-59
2022/06/20 11:51:50;;;;;;;;;;;14.30;99.90;;;;;;5051772;28;19934;-57
2022/06/20 11:54:53;;;;;;;;;;;14.10;99.90;;;;;;5051304;28;20296;-53
2022/06/20 11:57:44;;;;;;;;;;;13.80;99.90;;;;;;5049150;28;19939;-60
2022/06/20 12:00:44;;;;;;;;;;;13.90;99.90;;;;;;5051210;28;20070;-63
2022/06/20 12:03:47;;;;;;;;;;;13.80;99.90;;;;;;5048878;28;19920;-63
2022/06/20 12:06:34;;;;;;;;;;;13.70;99.90;;;;;;5048766;28;19935;-57
2022/06/20 12:09:25;;;;;;;;;;;13.50;99.90;;;;;;5034261;28;20319;-59
2022/06/20 12:12:12;;;;;;;;;;;13.60;99.90;;;;;;5048702;28;19915;-59
2022/06/20 12:14:59;;;;;;;;;;;13.80;99.90;;;;;;5053071;28;19912;-59
2022/06/20 12:17:51;;;;;;;;;;;13.80;99.90;;;;;;5053491;28;20398;-59
2022/06/20 12:23:48;;;;;;;;;;;13.90;99.90;;;;;;5050943;28;20637;-58
2022/06/20 12:26:35;;;;;;;;;;;13.90;99.90;;;;;;5052167;28;19995;-57
2022/06/20 12:29:21;;;;;;;;;;;13.90;99.90;;;;;;5033457;28;19916;-58
2022/06/20 12:32:12;;;;;;;;;;;14.00;99.90;;;;;;5046446;28;19916;-59
2022/06/20 12:34:59;;;;;;;;;;;13.80;99.90;;;;;;5053761;28;19915;-58
2022/06/20 12:37:45;;;;;;;;;;;13.80;99.90;;;;;;5051921;28;19950;-55
2022/06/20 12:40:33;;;;;;;;;;;13.50;99.90;;;;;;5053506;28;19955;-57
2022/06/20 12:43:20;;;;;;;;;;;13.60;99.90;;;;;;5041586;28;19933;-54
2022/06/20 12:46:05;;;;;;;;;;;13.70;99.90;;;;;;5052734;28;20034;-54
2022/06/20 12:49:01;;;;;;;;;;;14.00;99.90;;;;;;5054040;28;20001;-60
2022/06/20 12:51:51;;;;;;;;;;;14.20;99.90;;;;;;5053610;28;19912;-57
2022/06/20 12:54:54;;;;;;;;;;;14.20;99.90;;;;;;5052907;28;19954;-56
2022/06/20 12:58:03;;;;;;;;;;;14.20;99.90;;;;;;5045799;28;19927;-58
2022/06/20 13:00:47;;;;;;;;;;;14.10;99.90;;;;;;5043386;28;20416;-60
2022/06/20 13:03:38;;;;;;;;;;;14.30;99.90;;;;;;5032745;28;20035;-62
2022/06/20 13:06:48;;;;;;;;;;;13.90;99.90;;;;;;5045801;28;20051;-59
2022/06/20 13:09:42;;;;;;;;;;;14.10;99.90;;;;;;5057662;28;19924;-58
2022/06/20 13:12:26;;;;;;;;;;;14.00;99.90;;;;;;5059358;28;19912;-61
2022/06/20 13:15:29;;;;;;;;;;;14.00;99.90;;;;;;5056829;28;19959;-62
2022/06/20 13:18:26;;;;;;;;;;;14.10;99.90;;;;;;5055963;28;19915;-57
2022/06/20 13:21:10;;;;;;;;;;;14.30;99.90;;;;;;5058342;28;19923;-58
2022/06/20 13:23:58;;;;;;;;;;;14.60;99.90;;;;;;5050838;28;19974;-58
2022/06/20 13:26:45;;;;;;;;;;;14.60;99.90;;;;;;5051972;28;19958;-57
2022/06/20 13:29:42;;;;;;;;;;;14.60;99.90;;;;;;5050074;28;20275;-58
2022/06/20 13:32:45;;;;;;;;;;;14.90;99.90;;;;;;5049970;28;20015;-57
2022/06/20 13:35:29;;;;;;;;;;;15.20;99.90;;;;;;5051456;28;19954;-58
2022/06/20 13:38:25;;;;;;;;;;;15.10;99.90;;;;;;5051688;28;19954;-58
2022/06/20 13:41:18;;;;;;;;;;;15.10;99.90;;;;;;5048956;28;20015;-57
2022/06/20 13:44:13;;;;;;;;;;;15.20;99.90;;;;;;5050969;28;19916;-56
2022/06/20 13:46:57;;;;;;;;;;;15.40;99.90;;;;;;5049590;28;19916;-56
2022/06/20 13:50:02;;;;;;;;;;;15.40;99.90;;;;;;5051328;28;19931;-57
2022/06/20 13:52:49;;;;;;;;;;;15.30;99.90;;;;;;5055368;28;19958;-55
2022/06/20 13:55:52;;;;;;;;;;;15.20;99.90;;;;;;5051419;28;19916;-56
2022/06/20 13:58:55;;;;;;;;;;;15.10;99.90;;;;;;5055491;28;19916;-55
2022/06/20 14:01:41;;;;;;;;;;;15.40;99.90;;;;;;5061379;28;19981;-55
2022/06/20 14:04:27;;;;;;;;;;;15.70;99.90;;;;;;5060454;28;19927;-58
2022/06/20 14:07:20;;;;;;;;;;;15.90;99.90;;;;;;5060553;28;19931;-61
2022/06/20 14:10:05;;;;;;;;;;;16.00;99.90;;;;;;5049409;28;19915;-49
2022/06/20 14:12:51;;;;;;;;;;;16.30;99.90;;;;;;5064848;28;20144;-52
2022/06/20 14:15:36;;;;;;;;;;;16.50;99.90;;;;;;5059730;28;19915;-50
2022/06/20 14:18:21;;;;;;;;;;;16.20;99.90;;;;;;5053512;28;19915;-50
2022/06/20 14:21:06;;;;;;;;;;;16.30;99.90;;;;;;5054918;28;19942;-51
2022/06/20 14:23:52;;;;;;;;;;;16.60;99.90;;;;;;5054605;28;19962;-54
2022/06/20 14:26:37;;;;;;;;;;;16.80;99.90;;;;;;5052786;28;19911;-53
2022/06/20 14:29:23;;;;;;;;;;;16.80;99.90;;;;;;5054100;28;19947;-55
2022/06/20 14:32:10;;;;;;;;;;;16.90;99.90;;;;;;5054843;28;20301;-53
2022/06/20 14:35:21;;;;;;;;;;;17.10;99.90;;;;;;5055098;28;19912;-56
2022/06/20 14:38:22;;;;;;;;;;;17.10;99.90;;;;;;5054335;28;19916;-54
2022/06/20 14:44:29;;;;;;;;;;;17.10;99.90;;;;;;5054171;28;20391;-58
2022/06/20 14:47:19;;;;;;;;;;;16.80;99.90;;;;;;5054252;28;19911;-53
2022/06/20 14:50:13;;;;;;;;;;;16.50;99.90;;;;;;5055708;28;20051;-57
2022/06/20 14:52:57;;;;;;;;;;;16.10;99.90;;;;;;5049436;28;19912;-58
2022/06/20 14:55:45;;;;;;;;;;;16.10;99.90;;;;;;5046097;28;19936;-60
2022/06/20 14:58:30;;;;;;;;;;;16.20;99.90;;;;;;5054435;28;19911;-59
2022/06/20 15:01:25;;;;;;;;;;;16.40;99.90;;;;;;5053270;28;19966;-51
2022/06/20 15:04:09;;;;;;;;;;;16.50;99.90;;;;;;5049624;28;20013;-55
2022/06/20 15:07:04;;;;;;;;;;;16.30;99.90;;;;;;5054100;28;19978;-58
2022/06/20 15:09:50;;;;;;;;;;;16.50;99.90;;;;;;5054649;28;20407;-55
2022/06/20 15:12:38;;;;;;;;;;;16.60;99.90;;;;;;5054638;28;20413;-51
2022/06/20 15:15:38;;;;;;;;;;;16.60;99.90;;;;;;5049319;28;19912;-55
2022/06/20 15:18:42;;;;;;;;;;;16.70;99.90;;;;;;5048013;28;19939;-55
2022/06/20 15:21:46;;;;;;;;;;;17.00;99.90;;;;;;5040790;28;20307;-57
2022/06/20 15:24:30;;;;;;;;;;;17.10;99.90;;;;;;5054491;28;19920;-53
2022/06/20 15:27:18;;;;;;;;;;;17.40;99.90;;;;;;5053839;28;19916;-54
2022/06/20 15:30:05;;;;;;;;;;;17.70;99.90;;;;;;5053771;28;19953;-57
2022/06/20 15:32:51;;;;;;;;;;;18.20;99.90;;;;;;5054428;28;19974;-53
2022/06/20 15:35:50;;;;;;;;;;;18.60;99.90;;;;;;5053181;28;20288;-56
2022/06/20 15:38:38;;;;;;;;;;;18.80;99.90;;;;;;5054598;28;20275;-56
2022/06/20 15:41:33;;;;;;;;;;;18.90;99.30;;;;;;5054775;28;20024;-55
2022/06/20 15:44:21;;;;;;;;;;;18.10;99.90;;;;;;5055218;28;20013;-58
2022/06/20 15:47:19;;;;;;;;;;;18.00;99.90;;;;;;5054134;28;19912;-53
2022/06/20 15:50:03;;;;;;;;;;;18.20;99.90;;;;;;5034885;28;19948;-52
2022/06/20 15:53:06;;;;;;;;;;;18.80;99.90;;;;;;5040547;28;19915;-55
2022/06/20 15:55:51;;;;;;;;;;;19.00;99.80;;;;;;5054547;28;19915;-57
2022/06/20 15:58:44;;;;;;;;;;;19.00;99.10;;;;;;5062216;28;19931;-59
2022/06/20 16:01:35;;;;;;;;;;;18.70;99.80;;;;;;5052287;28;19977;-52
2022/06/20 16:04:22;;;;;;;;;;;18.80;99.60;;;;;;5060877;28;19911;-56
2022/06/20 16:07:27;;;;;;;;;;;18.90;98.80;;;;;;5065818;28;19958;-52
2022/06/20 16:10:14;;;;;;;;;;;19.20;98.90;;;;;;5067470;28;19958;-57
2022/06/20 16:12:59;;;;;;;;;;;19.90;98.20;;;;;;5054090;28;19958;-56
2022/06/20 16:15:45;;;;;;;;;;;19.90;97.40;;;;;;5060946;28;19935;-59
2022/06/20 16:18:31;;;;;;;;;;;20.40;97.20;;;;;;5060171;28;19911;-57
2022/06/20 16:21:17;;;;;;;;;;;20.80;96.00;;;;;;5081001;28;20332;-54
2022/06/20 16:24:04;;;;;;;;;;;21.10;94.50;;;;;;5082906;28;20355;-56
2022/06/20 16:26:52;;;;;;;;;;;21.10;95.10;;;;;;5082949;28;19914;-57
2022/06/20 16:29:47;;;;;;;;;;;20.70;94.20;;;;;;5084534;28;19915;-57
2022/06/20 16:32:31;;;;;;;;;;;20.30;95.20;;;;;;5086197;28;19938;-57
2022/06/20 16:35:15;;;;;;;;;;;20.50;94.90;;;;;;5083178;28;19961;-59
2022/06/20 16:38:03;;;;;;;;;;;21.30;94.30;;;;;;5085211;28;20053;-59
2022/06/20 16:41:03;;;;;;;;;;;21.60;93.50;;;;;;5057490;28;19912;-54
2022/06/20 16:43:53;;;;;;;;;;;22.40;93.20;;;;;;5060105;28;20004;-54